Abbeville, Georgia
Current Conditions -  °F | °C
As of 11:15 PM on Sunday 25 Jan 2015 (Local Time) from KEZM Reporting Station
Clear Clear  
Wind Chill: 51°   Ceiling: Unl
Heat Index: 51°   Visibility: 10mi
Dew Point: 45°   Wind: 7mph
Humidity: 81%   Direction: 230°SW
Pressure: 29.84"   Gusts: NA
Location:  31.99°N, 83.31°W
Report Text: KEZM 260415Z AUTO 23006KT 10SM CLR 10/07 A2984 RMK AO2 T01030072
Loading
Personal Weather Stations






























Interactive Weather Map New forecast layout! Learn more

10-Day Weather Forecast

Advertisements
Track Severe Weather on mobile